Airfield :
LOGIN :

Register | Disclaimer

   EN    FR    IT 

 










Legend :    VFR   Marginal VFR   IFR   Intensive IFR   Very Intensive IFR
Visi :
Ceiling :
>= 8 km
>= 3000ft
5 to 8 km
1000 to 3000 ft
1500m to 5 km
500 to 1000 ft
800 to 1500m
200 to 500 ft
< 800m
< 200 ft
Symbols :   Thunderstorms  Fog  Heavy snow  Heavy precipitations  Wind > 20 kt
SIGMETs :     Misc.  Thunderstorms  Icing  Turbulence  Mountain Waves  Volcanic Ashes







- Airport Elevation : 26 ft


ETNT - Wittmundhaven AB

CURRENT METAR :
  • 181520Z 24008KT 9999 FEW024 BKN030 BKN090 19/13 Q1005 BLU

EXPIRED METARs :
  • 181420Z 24009KT 9999 FEW024 SCT050 BKN090 19/12 Q1004 BLU
  • 181320Z 22009KT 9999 FEW018 SCT050 BKN090 19/13 Q1004 BLU

TAF TAF ETNT
Valid from the 18 at 14:00 until the 18 at 23:00 UTC


181325Z 1814/1823 22008KT 9999 NSW SCT015 BKN070
TEMPO 1814/1819 23015KT 4000 SHRA BKN010 BKN040CB
PROB30 1819/1823 23015KT 4000 SHRA BKN015 BKN040TCU BY ETGL
No reported NOTAMs for that airfield.



MET'MAP, your aeronautical weather chart ! - Copyright ORBIFLY December 2007 - Disclaimer

ORBIFLY MET'MAP TEAM :

Programming & Development : Alexandra Zaïnal
Concept & Development : Baudouin d'Aumeries
Co-Development & Prog : Marc-Olivier Méhu
Technical & hardware support : Manuel Goepfert

Contact : metmap@orbifly.com




SOURCES & CREDITS :

   NOAA